sensor_id;sensor_type;location;lat;lon;timestamp;temperature;humidity
3976;DHT22;2002;48.812;9.180;2022-10-31T00:00:21;18.50;70.90
3976;DHT22;2002;48.812;9.180;2022-10-31T00:02:47;18.50;71.70
3976;DHT22;2002;48.812;9.180;2022-10-31T00:05:13;18.50;69.40
3976;DHT22;2002;48.812;9.180;2022-10-31T00:07:38;18.50;71.90
3976;DHT22;2002;48.812;9.180;2022-10-31T00:10:04;18.50;72.20
3976;DHT22;2002;48.812;9.180;2022-10-31T00:12:30;18.50;69.00
3976;DHT22;2002;48.812;9.180;2022-10-31T00:14:55;18.50;70.50
3976;DHT22;2002;48.812;9.180;2022-10-31T00:17:21;18.50;71.10
3976;DHT22;2002;48.812;9.180;2022-10-31T00:19:46;18.50;69.60
3976;DHT22;2002;48.812;9.180;2022-10-31T00:22:12;18.50;72.50
3976;DHT22;2002;48.812;9.180;2022-10-31T00:24:37;18.50;70.80
3976;DHT22;2002;48.812;9.180;2022-10-31T00:27:03;18.40;73.70
3976;DHT22;2002;48.812;9.180;2022-10-31T00:29:29;18.40;66.80
3976;DHT22;2002;48.812;9.180;2022-10-31T00:31:54;18.50;76.00
3976;DHT22;2002;48.812;9.180;2022-10-31T00:34:20;18.50;68.20
3976;DHT22;2002;48.812;9.180;2022-10-31T00:36:45;18.50;68.00
3976;DHT22;2002;48.812;9.180;2022-10-31T00:39:11;18.50;68.90
3976;DHT22;2002;48.812;9.180;2022-10-31T00:41:36;18.40;69.60
3976;DHT22;2002;48.812;9.180;2022-10-31T00:44:02;18.50;69.90
3976;DHT22;2002;48.812;9.180;2022-10-31T00:46:27;18.50;70.70
3976;DHT22;2002;48.812;9.180;2022-10-31T00:48:53;18.50;64.10
3976;DHT22;2002;48.812;9.180;2022-10-31T00:51:18;18.50;68.40
3976;DHT22;2002;48.812;9.180;2022-10-31T00:53:44;18.50;66.60
3976;DHT22;2002;48.812;9.180;2022-10-31T00:56:09;18.50;70.30
3976;DHT22;2002;48.812;9.180;2022-10-31T00:58:35;18.50;66.30
3976;DHT22;2002;48.812;9.180;2022-10-31T01:01:01;18.50;65.10
3976;DHT22;2002;48.812;9.180;2022-10-31T01:03:29;18.50;66.20
3976;DHT22;2002;48.812;9.180;2022-10-31T01:06:00;18.50;67.50
3976;DHT22;2002;48.812;9.180;2022-10-31T01:08:26;18.50;66.90
3976;DHT22;2002;48.812;9.180;2022-10-31T01:11:19;18.50;62.20
3976;DHT22;2002;48.812;9.180;2022-10-31T01:13:46;18.50;65.80
3976;DHT22;2002;48.812;9.180;2022-10-31T01:16:14;18.50;64.40
3976;DHT22;2002;48.812;9.180;2022-10-31T01:18:40;18.50;66.10
3976;DHT22;2002;48.812;9.180;2022-10-31T01:23:34;18.50;69.50
3976;DHT22;2002;48.812;9.180;2022-10-31T01:26:02;18.50;67.70
3976;DHT22;2002;48.812;9.180;2022-10-31T01:28:28;18.50;66.20
3976;DHT22;2002;48.812;9.180;2022-10-31T01:30:53;18.50;66.60
3976;DHT22;2002;48.812;9.180;2022-10-31T01:33:19;18.50;66.90
3976;DHT22;2002;48.812;9.180;2022-10-31T01:35:45;18.50;67.50
3976;DHT22;2002;48.812;9.180;2022-10-31T01:38:10;18.50;65.30
3976;DHT22;2002;48.812;9.180;2022-10-31T01:40:36;18.50;67.80
3976;DHT22;2002;48.812;9.180;2022-10-31T01:43:02;18.50;68.00
3976;DHT22;2002;48.812;9.180;2022-10-31T01:45:27;18.50;71.00
3976;DHT22;2002;48.812;9.180;2022-10-31T01:47:53;18.50;67.30
3976;DHT22;2002;48.812;9.180;2022-10-31T01:50:26;18.50;67.20
3976;DHT22;2002;48.812;9.180;2022-10-31T01:52:53;18.50;71.20
3976;DHT22;2002;48.812;9.180;2022-10-31T01:55:40;18.50;66.00
3976;DHT22;2002;48.812;9.180;2022-10-31T01:58:13;18.50;67.30
3976;DHT22;2002;48.812;9.180;2022-10-31T02:00:43;18.50;66.80
3976;DHT22;2002;48.812;9.180;2022-10-31T02:03:10;18.50;69.40
3976;DHT22;2002;48.812;9.180;2022-10-31T02:05:36;18.50;68.60
3976;DHT22;2002;48.812;9.180;2022-10-31T02:08:27;18.50;68.30
3976;DHT22;2002;48.812;9.180;2022-10-31T02:10:54;18.50;67.50
3976;DHT22;2002;48.812;9.180;2022-10-31T02:13:22;18.50;67.80
3976;DHT22;2002;48.812;9.180;2022-10-31T02:15:51;18.50;70.00
3976;DHT22;2002;48.812;9.180;2022-10-31T02:18:17;18.50;70.40
3976;DHT22;2002;48.812;9.180;2022-10-31T02:23:39;18.50;69.40
3976;DHT22;2002;48.812;9.180;2022-10-31T02:26:41;18.50;65.20
3976;DHT22;2002;48.812;9.180;2022-10-31T02:31:56;18.40;65.10
3976;DHT22;2002;48.812;9.180;2022-10-31T02:45:25;18.50;67.50
3976;DHT22;2002;48.812;9.180;2022-10-31T02:47:54;18.50;64.80
3976;DHT22;2002;48.812;9.180;2022-10-31T02:50:31;18.50;64.70
3976;DHT22;2002;48.812;9.180;2022-10-31T02:52:58;18.50;67.10
3976;DHT22;2002;48.812;9.180;2022-10-31T02:58:17;18.50;69.60
3976;DHT22;2002;48.812;9.180;2022-10-31T03:04:11;18.50;66.60
3976;DHT22;2002;48.812;9.180;2022-10-31T03:06:49;18.50;68.70
3976;DHT22;2002;48.812;9.180;2022-10-31T03:09:32;18.40;69.90
3976;DHT22;2002;48.812;9.180;2022-10-31T03:14:56;18.40;66.80
3976;DHT22;2002;48.812;9.180;2022-10-31T03:17:37;18.40;65.50
3976;DHT22;2002;48.812;9.180;2022-10-31T03:20:09;18.40;66.80
3976;DHT22;2002;48.812;9.180;2022-10-31T03:22:36;18.50;66.90
3976;DHT22;2002;48.812;9.180;2022-10-31T03:25:05;18.50;67.20
3976;DHT22;2002;48.812;9.180;2022-10-31T03:27:34;18.50;71.30
3976;DHT22;2002;48.812;9.180;2022-10-31T03:30:02;18.50;65.30
3976;DHT22;2002;48.812;9.180;2022-10-31T03:32:36;18.50;67.10
3976;DHT22;2002;48.812;9.180;2022-10-31T03:35:05;18.50;67.60
3976;DHT22;2002;48.812;9.180;2022-10-31T03:37:34;18.50;65.50
3976;DHT22;2002;48.812;9.180;2022-10-31T03:40:02;18.50;71.10
3976;DHT22;2002;48.812;9.180;2022-10-31T03:42:32;18.50;69.70
3976;DHT22;2002;48.812;9.180;2022-10-31T03:45:13;18.50;67.60
3976;DHT22;2002;48.812;9.180;2022-10-31T03:47:39;18.50;66.00
3976;DHT22;2002;48.812;9.180;2022-10-31T03:50:06;18.50;68.10
3976;DHT22;2002;48.812;9.180;2022-10-31T03:57:57;18.50;65.40
3976;DHT22;2002;48.812;9.180;2022-10-31T04:00:25;18.50;65.80
3976;DHT22;2002;48.812;9.180;2022-10-31T04:02:59;18.50;64.20
3976;DHT22;2002;48.812;9.180;2022-10-31T04:05:26;18.40;66.00
3976;DHT22;2002;48.812;9.180;2022-10-31T04:07:55;18.50;64.50
3976;DHT22;2002;48.812;9.180;2022-10-31T04:10:22;18.40;69.60
3976;DHT22;2002;48.812;9.180;2022-10-31T04:12:55;18.40;69.30
3976;DHT22;2002;48.812;9.180;2022-10-31T04:15:23;18.50;68.60
3976;DHT22;2002;48.812;9.180;2022-10-31T04:17:53;18.50;69.80
3976;DHT22;2002;48.812;9.180;2022-10-31T04:20:30;18.50;69.50
3976;DHT22;2002;48.812;9.180;2022-10-31T04:22:56;18.40;65.70
3976;DHT22;2002;48.812;9.180;2022-10-31T04:25:21;18.50;63.50
3976;DHT22;2002;48.812;9.180;2022-10-31T04:27:47;18.40;65.70
3976;DHT22;2002;48.812;9.180;2022-10-31T04:30:12;18.50;65.30
3976;DHT22;2002;48.812;9.180;2022-10-31T04:32:38;18.40;63.30
3976;DHT22;2002;48.812;9.180;2022-10-31T04:35:04;18.40;62.70
3976;DHT22;2002;48.812;9.180;2022-10-31T04:37:29;18.40;60.90
3976;DHT22;2002;48.812;9.180;2022-10-31T04:39:55;18.40;66.20
3976;DHT22;2002;48.812;9.180;2022-10-31T04:42:20;18.50;62.90
3976;DHT22;2002;48.812;9.180;2022-10-31T04:44:46;18.40;64.30
3976;DHT22;2002;48.812;9.180;2022-10-31T04:47:11;18.40;68.90
3976;DHT22;2002;48.812;9.180;2022-10-31T04:49:37;18.40;68.40
3976;DHT22;2002;48.812;9.180;2022-10-31T04:52:03;18.40;73.40
3976;DHT22;2002;48.812;9.180;2022-10-31T04:54:28;18.50;69.90
3976;DHT22;2002;48.812;9.180;2022-10-31T04:56:54;18.40;71.30
3976;DHT22;2002;48.812;9.180;2022-10-31T04:59:19;18.50;68.80
3976;DHT22;2002;48.812;9.180;2022-10-31T05:01:45;18.40;72.30
3976;DHT22;2002;48.812;9.180;2022-10-31T05:04:10;18.40;66.70
3976;DHT22;2002;48.812;9.180;2022-10-31T05:06:36;18.40;66.40
3976;DHT22;2002;48.812;9.180;2022-10-31T05:09:01;18.50;65.60
3976;DHT22;2002;48.812;9.180;2022-10-31T05:11:27;18.50;64.40
3976;DHT22;2002;48.812;9.180;2022-10-31T05:13:52;18.40;68.00
3976;DHT22;2002;48.812;9.180;2022-10-31T05:16:18;18.50;68.20
3976;DHT22;2002;48.812;9.180;2022-10-31T05:18:43;18.40;69.80
3976;DHT22;2002;48.812;9.180;2022-10-31T05:21:09;18.40;68.50
3976;DHT22;2002;48.812;9.180;2022-10-31T05:23:34;18.40;72.00
3976;DHT22;2002;48.812;9.180;2022-10-31T05:26:00;18.40;65.60
3976;DHT22;2002;48.812;9.180;2022-10-31T05:28:25;18.40;67.30
3976;DHT22;2002;48.812;9.180;2022-10-31T05:30:51;18.40;70.90
3976;DHT22;2002;48.812;9.180;2022-10-31T05:33:16;18.50;65.80
3976;DHT22;2002;48.812;9.180;2022-10-31T05:35:42;18.40;69.60
3976;DHT22;2002;48.812;9.180;2022-10-31T05:38:08;18.40;65.60
3976;DHT22;2002;48.812;9.180;2022-10-31T05:40:33;18.40;69.10
3976;DHT22;2002;48.812;9.180;2022-10-31T05:42:59;18.40;67.00
3976;DHT22;2002;48.812;9.180;2022-10-31T05:45:24;18.40;71.40
3976;DHT22;2002;48.812;9.180;2022-10-31T05:47:54;18.40;93.20
3976;DHT22;2002;48.812;9.180;2022-10-31T05:50:21;18.40;71.20
3976;DHT22;2002;48.812;9.180;2022-10-31T05:52:47;18.40;67.90
3976;DHT22;2002;48.812;9.180;2022-10-31T05:55:13;18.40;69.70
3976;DHT22;2002;48.812;9.180;2022-10-31T05:57:38;18.40;70.80
3976;DHT22;2002;48.812;9.180;2022-10-31T06:00:05;18.40;65.60
3976;DHT22;2002;48.812;9.180;2022-10-31T06:02:31;18.40;68.30
3976;DHT22;2002;48.812;9.180;2022-10-31T06:05:00;18.40;68.70
3976;DHT22;2002;48.812;9.180;2022-10-31T06:07:25;18.40;70.50
3976;DHT22;2002;48.812;9.180;2022-10-31T06:09:51;18.40;67.90
3976;DHT22;2002;48.812;9.180;2022-10-31T06:12:16;18.40;68.90
3976;DHT22;2002;48.812;9.180;2022-10-31T06:14:42;18.40;73.10
3976;DHT22;2002;48.812;9.180;2022-10-31T06:17:07;18.40;66.50
3976;DHT22;2002;48.812;9.180;2022-10-31T06:19:33;18.40;64.50
3976;DHT22;2002;48.812;9.180;2022-10-31T06:21:58;18.50;62.10
3976;DHT22;2002;48.812;9.180;2022-10-31T06:24:24;18.50;60.60
3976;DHT22;2002;48.812;9.180;2022-10-31T06:26:49;18.50;66.00
3976;DHT22;2002;48.812;9.180;2022-10-31T06:29:15;18.50;62.00
3976;DHT22;2002;48.812;9.180;2022-10-31T06:31:40;18.50;65.90
3976;DHT22;2002;48.812;9.180;2022-10-31T06:34:06;18.50;59.30
3976;DHT22;2002;48.812;9.180;2022-10-31T06:36:32;18.50;64.30
3976;DHT22;2002;48.812;9.180;2022-10-31T06:38:57;18.50;64.70
3976;DHT22;2002;48.812;9.180;2022-10-31T06:41:23;18.50;64.90
3976;DHT22;2002;48.812;9.180;2022-10-31T06:43:48;18.50;60.40
3976;DHT22;2002;48.812;9.180;2022-10-31T06:46:14;18.60;60.70
3976;DHT22;2002;48.812;9.180;2022-10-31T06:48:42;18.60;58.80
3976;DHT22;2002;48.812;9.180;2022-10-31T06:51:08;18.60;60.30
3976;DHT22;2002;48.812;9.180;2022-10-31T06:53:33;18.60;60.70
3976;DHT22;2002;48.812;9.180;2022-10-31T06:55:59;18.70;63.90
3976;DHT22;2002;48.812;9.180;2022-10-31T06:58:24;18.60;60.00
3976;DHT22;2002;48.812;9.180;2022-10-31T07:00:50;18.70;60.80
3976;DHT22;2002;48.812;9.180;2022-10-31T07:03:17;18.70;61.30
3976;DHT22;2002;48.812;9.180;2022-10-31T07:05:43;18.70;60.60
3976;DHT22;2002;48.812;9.180;2022-10-31T07:08:13;18.70;61.70
3976;DHT22;2002;48.812;9.180;2022-10-31T07:10:41;18.70;60.30
3976;DHT22;2002;48.812;9.180;2022-10-31T07:13:11;18.70;55.30
3976;DHT22;2002;48.812;9.180;2022-10-31T07:15:38;18.70;58.10
3976;DHT22;2002;48.812;9.180;2022-10-31T07:18:06;18.70;59.30
3976;DHT22;2002;48.812;9.180;2022-10-31T07:20:31;18.70;60.70
3976;DHT22;2002;48.812;9.180;2022-10-31T07:22:57;18.70;58.00
3976;DHT22;2002;48.812;9.180;2022-10-31T07:25:23;18.70;61.20
3976;DHT22;2002;48.812;9.180;2022-10-31T07:27:49;18.70;61.70
3976;DHT22;2002;48.812;9.180;2022-10-31T07:30:15;18.70;59.70
3976;DHT22;2002;48.812;9.180;2022-10-31T07:32:45;18.70;60.20
3976;DHT22;2002;48.812;9.180;2022-10-31T07:35:20;18.70;58.60
3976;DHT22;2002;48.812;9.180;2022-10-31T07:37:46;18.70;62.50
3976;DHT22;2002;48.812;9.180;2022-10-31T07:40:12;18.70;62.60
3976;DHT22;2002;48.812;9.180;2022-10-31T07:42:42;18.80;58.60
3976;DHT22;2002;48.812;9.180;2022-10-31T07:45:11;18.80;61.80
3976;DHT22;2002;48.812;9.180;2022-10-31T07:47:40;18.80;60.90
3976;DHT22;2002;48.812;9.180;2022-10-31T07:50:07;18.80;61.20
3976;DHT22;2002;48.812;9.180;2022-10-31T07:52:32;18.80;57.50
3976;DHT22;2002;48.812;9.180;2022-10-31T07:54:58;18.80;59.60
3976;DHT22;2002;48.812;9.180;2022-10-31T07:57:24;18.80;59.80
3976;DHT22;2002;48.812;9.180;2022-10-31T07:59:49;18.80;63.00
3976;DHT22;2002;48.812;9.180;2022-10-31T08:02:15;18.80;55.10
3976;DHT22;2002;48.812;9.180;2022-10-31T08:04:40;18.80;58.60
3976;DHT22;2002;48.812;9.180;2022-10-31T08:07:06;18.80;55.40
3976;DHT22;2002;48.812;9.180;2022-10-31T08:09:31;18.80;53.60
3976;DHT22;2002;48.812;9.180;2022-10-31T08:11:57;18.80;56.50
3976;DHT22;2002;48.812;9.180;2022-10-31T08:14:22;18.80;58.20
3976;DHT22;2002;48.812;9.180;2022-10-31T08:16:48;18.80;57.00
3976;DHT22;2002;48.812;9.180;2022-10-31T08:19:13;18.80;56.80
3976;DHT22;2002;48.812;9.180;2022-10-31T08:21:39;18.80;56.90
3976;DHT22;2002;48.812;9.180;2022-10-31T08:24:05;18.80;58.50
3976;DHT22;2002;48.812;9.180;2022-10-31T08:26:31;18.80;55.30
3976;DHT22;2002;48.812;9.180;2022-10-31T08:28:56;18.80;56.10
3976;DHT22;2002;48.812;9.180;2022-10-31T08:31:22;18.80;60.70
3976;DHT22;2002;48.812;9.180;2022-10-31T08:33:49;18.80;58.10
3976;DHT22;2002;48.812;9.180;2022-10-31T08:36:14;18.80;62.10
3976;DHT22;2002;48.812;9.180;2022-10-31T08:38:40;18.80;57.50
3976;DHT22;2002;48.812;9.180;2022-10-31T08:41:05;18.80;58.70
3976;DHT22;2002;48.812;9.180;2022-10-31T08:43:31;18.80;57.50
3976;DHT22;2002;48.812;9.180;2022-10-31T08:45:56;18.80;56.00
3976;DHT22;2002;48.812;9.180;2022-10-31T08:48:22;18.80;57.90
3976;DHT22;2002;48.812;9.180;2022-10-31T08:50:48;18.80;63.50
3976;DHT22;2002;48.812;9.180;2022-10-31T08:53:16;18.90;61.20
3976;DHT22;2002;48.812;9.180;2022-10-31T08:55:43;18.80;57.90
3976;DHT22;2002;48.812;9.180;2022-10-31T08:58:14;18.80;54.60
3976;DHT22;2002;48.812;9.180;2022-10-31T09:00:40;18.80;55.90
3976;DHT22;2002;48.812;9.180;2022-10-31T09:03:11;18.80;68.40
3976;DHT22;2002;48.812;9.180;2022-10-31T09:05:37;18.70;57.60
3976;DHT22;2002;48.812;9.180;2022-10-31T09:08:04;18.80;64.00
3976;DHT22;2002;48.812;9.180;2022-10-31T09:10:31;18.80;65.40
3976;DHT22;2002;48.812;9.180;2022-10-31T09:13:03;18.80;58.60
3976;DHT22;2002;48.812;9.180;2022-10-31T09:15:32;18.80;59.20
3976;DHT22;2002;48.812;9.180;2022-10-31T09:17:58;18.80;63.40
3976;DHT22;2002;48.812;9.180;2022-10-31T09:20:24;18.80;60.40
3976;DHT22;2002;48.812;9.180;2022-10-31T09:22:57;18.70;53.30
3976;DHT22;2002;48.812;9.180;2022-10-31T09:25:23;18.70;58.60
3976;DHT22;2002;48.812;9.180;2022-10-31T09:27:49;18.80;59.70
3976;DHT22;2002;48.812;9.180;2022-10-31T09:30:14;18.80;57.30
3976;DHT22;2002;48.812;9.180;2022-10-31T09:32:40;18.80;57.10
3976;DHT22;2002;48.812;9.180;2022-10-31T09:35:06;18.70;54.80
3976;DHT22;2002;48.812;9.180;2022-10-31T09:37:31;18.70;56.10
3976;DHT22;2002;48.812;9.180;2022-10-31T09:39:57;18.70;56.80
3976;DHT22;2002;48.812;9.180;2022-10-31T09:50:57;18.70;56.70
3976;DHT22;2002;48.812;9.180;2022-10-31T09:56:12;18.70;57.90
3976;DHT22;2002;48.812;9.180;2022-10-31T09:58:51;18.70;55.90
3976;DHT22;2002;48.812;9.180;2022-10-31T10:03:54;18.70;58.80
3976;DHT22;2002;48.812;9.180;2022-10-31T10:06:25;18.70;83.60
3976;DHT22;2002;48.812;9.180;2022-10-31T10:08:52;18.70;57.20
3976;DHT22;2002;48.812;9.180;2022-10-31T10:14:04;18.70;58.50
3976;DHT22;2002;48.812;9.180;2022-10-31T10:22:09;18.70;57.30
3976;DHT22;2002;48.812;9.180;2022-10-31T10:33:03;18.70;56.60
3976;DHT22;2002;48.812;9.180;2022-10-31T10:35:34;18.70;59.40
3976;DHT22;2002;48.812;9.180;2022-10-31T10:38:08;18.70;58.30
3976;DHT22;2002;48.812;9.180;2022-10-31T10:40:35;18.70;58.10
3976;DHT22;2002;48.812;9.180;2022-10-31T10:43:13;18.70;57.50
3976;DHT22;2002;48.812;9.180;2022-10-31T10:45:50;18.70;59.00
3976;DHT22;2002;48.812;9.180;2022-10-31T10:48:50;18.70;56.70
3976;DHT22;2002;48.812;9.180;2022-10-31T10:51:22;18.70;58.30
3976;DHT22;2002;48.812;9.180;2022-10-31T10:54:10;18.70;56.80
3976;DHT22;2002;48.812;9.180;2022-10-31T10:56:57;18.70;57.70
3976;DHT22;2002;48.812;9.180;2022-10-31T10:59:24;18.60;56.80
3976;DHT22;2002;48.812;9.180;2022-10-31T11:01:51;18.60;55.90
3976;DHT22;2002;48.812;9.180;2022-10-31T11:04:34;18.60;59.80
3976;DHT22;2002;48.812;9.180;2022-10-31T11:07:05;18.60;58.80
3976;DHT22;2002;48.812;9.180;2022-10-31T11:09:32;18.60;58.80
3976;DHT22;2002;48.812;9.180;2022-10-31T11:11:59;18.60;55.10
3976;DHT22;2002;48.812;9.180;2022-10-31T11:14:26;18.60;64.40
3976;DHT22;2002;48.812;9.180;2022-10-31T11:17:06;18.60;60.20
3976;DHT22;2002;48.812;9.180;2022-10-31T11:19:33;18.60;60.00
3976;DHT22;2002;48.812;9.180;2022-10-31T11:22:07;18.60;57.90
3976;DHT22;2002;48.812;9.180;2022-10-31T11:24:40;18.60;54.90
3976;DHT22;2002;48.812;9.180;2022-10-31T11:27:20;18.60;55.40
3976;DHT22;2002;48.812;9.180;2022-10-31T11:29:46;18.60;56.90
3976;DHT22;2002;48.812;9.180;2022-10-31T11:32:22;18.60;58.10
3976;DHT22;2002;48.812;9.180;2022-10-31T11:34:54;18.60;67.80
3976;DHT22;2002;48.812;9.180;2022-10-31T11:37:25;18.60;58.20
3976;DHT22;2002;48.812;9.180;2022-10-31T11:39:54;18.60;57.60
3976;DHT22;2002;48.812;9.180;2022-10-31T11:42:26;18.60;59.00
3976;DHT22;2002;48.812;9.180;2022-10-31T11:44:54;18.60;64.20
3976;DHT22;2002;48.812;9.180;2022-10-31T11:47:28;18.60;63.60
3976;DHT22;2002;48.812;9.180;2022-10-31T11:49:56;18.60;61.90
3976;DHT22;2002;48.812;9.180;2022-10-31T11:52:25;18.60;61.10
3976;DHT22;2002;48.812;9.180;2022-10-31T11:54:58;18.60;58.20
3976;DHT22;2002;48.812;9.180;2022-10-31T11:57:33;18.60;61.70
3976;DHT22;2002;48.812;9.180;2022-10-31T12:00:21;18.60;60.00
3976;DHT22;2002;48.812;9.180;2022-10-31T12:02:47;18.60;63.50
3976;DHT22;2002;48.812;9.180;2022-10-31T12:05:20;18.60;64.90
3976;DHT22;2002;48.812;9.180;2022-10-31T12:07:48;18.60;60.50
3976;DHT22;2002;48.812;9.180;2022-10-31T12:10:14;18.60;59.50
3976;DHT22;2002;48.812;9.180;2022-10-31T12:13:17;18.60;61.80
3976;DHT22;2002;48.812;9.180;2022-10-31T12:15:54;18.60;64.30
3976;DHT22;2002;48.812;9.180;2022-10-31T12:21:21;18.60;59.70
3976;DHT22;2002;48.812;9.180;2022-10-31T12:26:36;18.60;63.40
3976;DHT22;2002;48.812;9.180;2022-10-31T12:29:15;18.60;60.60
3976;DHT22;2002;48.812;9.180;2022-10-31T12:31:54;18.60;59.70
3976;DHT22;2002;48.812;9.180;2022-10-31T12:34:36;18.60;59.80
3976;DHT22;2002;48.812;9.180;2022-10-31T12:45:59;18.50;58.70
3976;DHT22;2002;48.812;9.180;2022-10-31T12:48:50;18.50;62.00
3976;DHT22;2002;48.812;9.180;2022-10-31T12:51:46;18.50;63.10
3976;DHT22;2002;48.812;9.180;2022-10-31T12:57:36;18.50;63.60
3976;DHT22;2002;48.812;9.180;2022-10-31T13:00:15;18.60;61.00
3976;DHT22;2002;48.812;9.180;2022-10-31T13:05:37;18.50;58.00
3976;DHT22;2002;48.812;9.180;2022-10-31T13:08:07;18.50;89.80
3976;DHT22;2002;48.812;9.180;2022-10-31T13:10:45;18.60;61.10
3976;DHT22;2002;48.812;9.180;2022-10-31T13:16:30;18.50;59.30
3976;DHT22;2002;48.812;9.180;2022-10-31T13:24:20;18.50;60.00
3976;DHT22;2002;48.812;9.180;2022-10-31T13:26:54;18.50;64.70
3976;DHT22;2002;48.812;9.180;2022-10-31T13:29:47;18.50;66.00
3976;DHT22;2002;48.812;9.180;2022-10-31T13:32:15;18.50;71.40
3976;DHT22;2002;48.812;9.180;2022-10-31T13:34:46;18.50;60.70
3976;DHT22;2002;48.812;9.180;2022-10-31T13:45:19;18.50;63.10
3976;DHT22;2002;48.812;9.180;2022-10-31T13:48:17;18.50;64.60
3976;DHT22;2002;48.812;9.180;2022-10-31T13:50:59;18.50;62.30
3976;DHT22;2002;48.812;9.180;2022-10-31T13:53:55;18.50;62.20
3976;DHT22;2002;48.812;9.180;2022-10-31T13:56:24;18.50;57.50
3976;DHT22;2002;48.812;9.180;2022-10-31T13:58:58;18.50;68.20
3976;DHT22;2002;48.812;9.180;2022-10-31T14:01:24;18.50;62.40
3976;DHT22;2002;48.812;9.180;2022-10-31T14:07:05;18.50;63.50
3976;DHT22;2002;48.812;9.180;2022-10-31T14:09:35;18.50;62.20
3976;DHT22;2002;48.812;9.180;2022-10-31T14:12:33;18.50;64.30
3976;DHT22;2002;48.812;9.180;2022-10-31T14:15:06;18.50;62.00
3976;DHT22;2002;48.812;9.180;2022-10-31T14:17:52;18.50;60.30
3976;DHT22;2002;48.812;9.180;2022-10-31T15:23:28;18.30;79.50
3976;DHT22;2002;48.812;9.180;2022-10-31T15:25:59;18.80;72.20
3976;DHT22;2002;48.812;9.180;2022-10-31T15:28:25;18.90;70.20
3976;DHT22;2002;48.812;9.180;2022-10-31T15:30:53;18.80;75.10
3976;DHT22;2002;48.812;9.180;2022-10-31T15:33:27;18.80;70.00
3976;DHT22;2002;48.812;9.180;2022-10-31T15:36:00;18.70;76.10
3976;DHT22;2002;48.812;9.180;2022-10-31T15:38:27;18.70;77.40
3976;DHT22;2002;48.812;9.180;2022-10-31T15:43:48;18.70;70.60
3976;DHT22;2002;48.812;9.180;2022-10-31T15:46:13;18.80;70.20
3976;DHT22;2002;48.812;9.180;2022-10-31T15:48:44;18.70;78.20
3976;DHT22;2002;48.812;9.180;2022-10-31T15:51:11;18.60;78.90
3976;DHT22;2002;48.812;9.180;2022-10-31T15:53:49;18.60;78.80
3976;DHT22;2002;48.812;9.180;2022-10-31T15:56:25;18.60;84.20
3976;DHT22;2002;48.812;9.180;2022-10-31T15:58:53;18.60;87.30
3976;DHT22;2002;48.812;9.180;2022-10-31T16:01:25;18.50;83.60
3976;DHT22;2002;48.812;9.180;2022-10-31T16:22:38;18.50;77.50
3976;DHT22;2002;48.812;9.180;2022-10-31T16:25:12;18.80;76.90
3976;DHT22;2002;48.812;9.180;2022-10-31T16:27:40;18.80;75.10
3976;DHT22;2002;48.812;9.180;2022-10-31T16:30:38;18.70;78.20
3976;DHT22;2002;48.812;9.180;2022-10-31T16:33:50;18.70;77.10
3976;DHT22;2002;48.812;9.180;2022-10-31T16:35:51;18.60;79.20
3976;DHT22;2002;48.812;9.180;2022-10-31T16:38:16;18.60;83.10
3976;DHT22;2002;48.812;9.180;2022-10-31T16:40:42;18.60;82.10
3976;DHT22;2002;48.812;9.180;2022-10-31T16:43:11;18.60;79.30
3976;DHT22;2002;48.812;9.180;2022-10-31T16:45:43;18.50;81.60
3976;DHT22;2002;48.812;9.180;2022-10-31T16:48:17;18.50;79.70
3976;DHT22;2002;48.812;9.180;2022-10-31T16:50:44;18.50;78.10
3976;DHT22;2002;48.812;9.180;2022-10-31T16:53:12;18.50;81.20
3976;DHT22;2002;48.812;9.180;2022-10-31T16:55:50;18.50;78.50
3976;DHT22;2002;48.812;9.180;2022-10-31T16:58:27;18.50;77.70
3976;DHT22;2002;48.812;9.180;2022-10-31T17:00:53;18.50;78.80
3976;DHT22;2002;48.812;9.180;2022-10-31T17:03:19;18.50;80.40
3976;DHT22;2002;48.812;9.180;2022-10-31T17:05:45;18.50;81.20
3976;DHT22;2002;48.812;9.180;2022-10-31T17:08:11;18.50;79.00
3976;DHT22;2002;48.812;9.180;2022-10-31T17:10:38;18.50;79.30
3976;DHT22;2002;48.812;9.180;2022-10-31T17:13:06;18.50;82.00
3976;DHT22;2002;48.812;9.180;2022-10-31T17:15:37;18.50;80.70
3976;DHT22;2002;48.812;9.180;2022-10-31T17:18:04;18.50;79.30
3976;DHT22;2002;48.812;9.180;2022-10-31T17:20:30;18.50;80.00
3976;DHT22;2002;48.812;9.180;2022-10-31T17:22:57;18.50;79.30
3976;DHT22;2002;48.812;9.180;2022-10-31T17:25:25;18.50;77.30
3976;DHT22;2002;48.812;9.180;2022-10-31T17:27:52;18.50;78.90
3976;DHT22;2002;48.812;9.180;2022-10-31T17:30:19;18.50;79.00
3976;DHT22;2002;48.812;9.180;2022-10-31T17:32:46;18.50;77.30
3976;DHT22;2002;48.812;9.180;2022-10-31T17:35:12;18.50;77.70
3976;DHT22;2002;48.812;9.180;2022-10-31T17:37:39;18.50;77.90
3976;DHT22;2002;48.812;9.180;2022-10-31T17:40:07;18.50;78.60
3976;DHT22;2002;48.812;9.180;2022-10-31T17:42:33;18.50;81.50
3976;DHT22;2002;48.812;9.180;2022-10-31T17:44:59;18.50;77.50
3976;DHT22;2002;48.812;9.180;2022-10-31T17:47:24;18.50;76.20
3976;DHT22;2002;48.812;9.180;2022-10-31T17:49:50;18.50;76.00
3976;DHT22;2002;48.812;9.180;2022-10-31T17:52:18;18.50;78.40
3976;DHT22;2002;48.812;9.180;2022-10-31T17:54:43;18.50;77.60
3976;DHT22;2002;48.812;9.180;2022-10-31T17:57:09;18.50;77.50
3976;DHT22;2002;48.812;9.180;2022-10-31T17:59:35;18.50;79.20
3976;DHT22;2002;48.812;9.180;2022-10-31T18:02:00;18.50;82.00
3976;DHT22;2002;48.812;9.180;2022-10-31T18:04:27;18.50;78.70
3976;DHT22;2002;48.812;9.180;2022-10-31T18:06:53;18.50;75.20
3976;DHT22;2002;48.812;9.180;2022-10-31T18:09:19;18.50;77.20
3976;DHT22;2002;48.812;9.180;2022-10-31T18:11:44;18.50;77.30
3976;DHT22;2002;48.812;9.180;2022-10-31T18:14:10;18.50;81.00
3976;DHT22;2002;48.812;9.180;2022-10-31T18:16:36;18.50;81.30
3976;DHT22;2002;48.812;9.180;2022-10-31T18:19:01;18.50;76.80
3976;DHT22;2002;48.812;9.180;2022-10-31T18:21:28;18.50;78.70
3976;DHT22;2002;48.812;9.180;2022-10-31T18:23:55;18.50;77.80
3976;DHT22;2002;48.812;9.180;2022-10-31T18:26:22;18.50;79.50
3976;DHT22;2002;48.812;9.180;2022-10-31T18:28:47;18.60;77.70
3976;DHT22;2002;48.812;9.180;2022-10-31T18:31:13;18.50;78.40
3976;DHT22;2002;48.812;9.180;2022-10-31T18:33:38;18.50;79.80
3976;DHT22;2002;48.812;9.180;2022-10-31T18:36:07;18.50;77.60
3976;DHT22;2002;48.812;9.180;2022-10-31T18:38:36;18.50;77.50
3976;DHT22;2002;48.812;9.180;2022-10-31T18:41:01;18.50;75.10
3976;DHT22;2002;48.812;9.180;2022-10-31T18:43:27;18.50;74.70
3976;DHT22;2002;48.812;9.180;2022-10-31T18:45:52;18.50;75.80
3976;DHT22;2002;48.812;9.180;2022-10-31T18:48:18;18.50;76.30
3976;DHT22;2002;48.812;9.180;2022-10-31T18:50:44;18.50;76.30
3976;DHT22;2002;48.812;9.180;2022-10-31T18:53:10;18.50;72.40
3976;DHT22;2002;48.812;9.180;2022-10-31T18:55:40;18.50;74.90
3976;DHT22;2002;48.812;9.180;2022-10-31T18:58:06;18.50;77.10
3976;DHT22;2002;48.812;9.180;2022-10-31T19:00:31;18.50;79.30
3976;DHT22;2002;48.812;9.180;2022-10-31T19:02:57;18.50;78.20
3976;DHT22;2002;48.812;9.180;2022-10-31T19:05:22;18.50;80.70
3976;DHT22;2002;48.812;9.180;2022-10-31T19:07:48;18.50;75.80
3976;DHT22;2002;48.812;9.180;2022-10-31T19:10:13;18.50;75.00
3976;DHT22;2002;48.812;9.180;2022-10-31T19:12:39;18.50;78.20
3976;DHT22;2002;48.812;9.180;2022-10-31T19:15:05;18.50;75.20
3976;DHT22;2002;48.812;9.180;2022-10-31T19:17:31;18.50;73.60
3976;DHT22;2002;48.812;9.180;2022-10-31T19:19:56;18.50;78.20
3976;DHT22;2002;48.812;9.180;2022-10-31T19:22:22;18.50;77.10